Time;durP1;ratioP1;P1;durP2;ratioP2;P2;SDS_P1;SDS_P2;PMS_P1;PMS_P2;Temp;Humidity;BMP_temperature;BMP_pressure;BME280_temperature;BME280_humidity;BME280_pressure;Samples;Min_cycle;Max_cycle;Signal;HPM_P1;HPM_P2
2021/07/22 00:02:24;;;;;;;10.07;7.70;;;;;;;15.42;100.00;101521.97;5045621;28;20082;-80
2021/07/22 00:04:51;;;;;;;10.60;8.18;;;;;;;15.42;100.00;101516.66;5041225;28;20056;-81
2021/07/22 00:07:18;;;;;;;10.43;7.03;;;;;;;15.36;100.00;101526.59;5015204;28;20075;-82
2021/07/22 00:09:46;;;;;;;10.70;7.55;;;;;;;15.34;100.00;101510.66;5030507;28;20224;-81
2021/07/22 00:12:13;;;;;;;12.13;8.70;;;;;;;15.33;100.00;101513.38;5044070;28;20040;-81
2021/07/22 00:14:40;;;;;;;10.32;7.63;;;;;;;15.31;100.00;101512.53;5047924;28;20037;-81
2021/07/22 00:17:08;;;;;;;11.77;7.63;;;;;;;15.27;100.00;101509.06;5030498;28;20514;-81
2021/07/22 00:19:35;;;;;;;9.18;6.78;;;;;;;15.25;100.00;101507.38;5041449;28;20048;-81
2021/07/22 00:22:02;;;;;;;12.38;8.23;;;;;;;15.20;100.00;101511.00;5050422;28;20041;-81
2021/07/22 00:24:29;;;;;;;10.27;7.50;;;;;;;15.17;100.00;101504.91;5046675;28;20045;-81
2021/07/22 00:26:56;;;;;;;9.00;7.45;;;;;;;15.13;100.00;101512.13;5029046;28;20060;-80
2021/07/22 00:29:22;;;;;;;10.57;8.20;;;;;;;15.11;100.00;101505.06;5043316;28;20049;-80
2021/07/22 00:31:49;;;;;;;8.98;7.22;;;;;;;15.06;100.00;101505.19;5005615;28;20637;-81
2021/07/22 00:34:16;;;;;;;10.50;7.97;;;;;;;15.01;100.00;101504.44;5035605;28;20048;-81
2021/07/22 00:36:42;;;;;;;10.35;6.97;;;;;;;14.94;100.00;101502.81;5023804;28;20041;-81
2021/07/22 00:39:09;;;;;;;11.07;7.65;;;;;;;14.86;100.00;101510.13;5063181;28;20068;-81
2021/07/22 00:41:40;;;;;;;9.35;7.10;;;;;;;14.85;100.00;101509.25;5014642;28;20045;-81
2021/07/22 00:44:09;;;;;;;11.73;8.15;;;;;;;14.83;100.00;101504.88;5045873;28;20049;-81
2021/07/22 00:46:35;;;;;;;8.55;7.28;;;;;;;14.79;100.00;101503.19;5032386;28;20132;-81
2021/07/22 00:49:02;;;;;;;8.93;6.88;;;;;;;14.79;100.00;101498.75;5015592;28;20041;-81
2021/07/22 00:51:29;;;;;;;10.23;7.45;;;;;;;14.76;100.00;101503.28;5032666;28;20107;-81
2021/07/22 00:53:55;;;;;;;10.25;7.43;;;;;;;14.72;100.00;101506.94;5041232;28;20044;-80
2021/07/22 00:56:22;;;;;;;9.55;7.10;;;;;;;14.69;100.00;101501.69;5042178;28;20207;-81
2021/07/22 00:58:49;;;;;;;10.07;7.18;;;;;;;14.69;100.00;101499.03;5012118;28;20465;-82
2021/07/22 01:01:15;;;;;;;9.13;6.75;;;;;;;14.66;100.00;101499.09;5039316;28;20048;-81
2021/07/22 01:03:44;;;;;;;9.85;6.90;;;;;;;14.57;100.00;101501.06;5059750;28;20036;-81
2021/07/22 01:06:11;;;;;;;9.70;6.88;;;;;;;14.57;100.00;101497.53;5044198;28;20049;-81
2021/07/22 01:08:38;;;;;;;10.15;6.93;;;;;;;14.54;100.00;101497.59;5033153;28;20048;-80
2021/07/22 01:11:04;;;;;;;11.18;7.38;;;;;;;14.54;100.00;101493.16;5035912;28;20042;-81
2021/07/22 01:13:31;;;;;;;9.32;7.05;;;;;;;14.48;100.00;101498.63;5018712;28;20047;-82
2021/07/22 01:15:58;;;;;;;10.25;7.00;;;;;;;14.37;100.00;101495.28;5035570;28;20071;-81
2021/07/22 01:18:25;;;;;;;12.10;7.85;;;;;;;14.31;100.00;101487.47;5027213;28;20091;-81
2021/07/22 01:20:51;;;;;;;12.18;8.02;;;;;;;14.32;100.00;101486.56;5025913;28;20095;-81
2021/07/22 01:23:18;;;;;;;9.80;8.20;;;;;;;14.22;100.00;101490.34;5035236;28;20052;-80
2021/07/22 01:25:45;;;;;;;10.18;7.45;;;;;;;14.21;100.00;101493.88;5034057;28;20684;-81
2021/07/22 01:28:12;;;;;;;10.05;7.40;;;;;;;14.15;100.00;101484.28;5034654;28;20072;-81
2021/07/22 01:30:38;;;;;;;10.68;7.22;;;;;;;14.19;100.00;101493.06;5024901;28;20102;-81
2021/07/22 01:33:05;;;;;;;9.20;7.40;;;;;;;14.14;100.00;101492.28;5034557;28;20430;-80
2021/07/22 01:35:32;;;;;;;9.13;6.55;;;;;;;14.05;100.00;101488.06;5033644;28;20546;-81
2021/07/22 01:37:58;;;;;;;11.20;7.43;;;;;;;14.04;100.00;101492.50;5048507;28;20056;-81
2021/07/22 01:40:25;;;;;;;8.77;6.82;;;;;;;13.98;100.00;101489.09;5013979;28;20514;-81
2021/07/22 01:42:51;;;;;;;11.30;8.18;;;;;;;14.00;100.00;101489.94;5057046;28;20033;-81
2021/07/22 01:45:18;;;;;;;14.82;8.43;;;;;;;13.95;100.00;101487.34;5042712;28;20417;-80
2021/07/22 01:47:46;;;;;;;12.50;8.27;;;;;;;13.93;100.00;101483.84;5030552;28;20053;-80
2021/07/22 01:50:13;;;;;;;10.00;7.13;;;;;;;13.90;100.00;101481.28;5037151;28;20037;-80
2021/07/22 01:52:39;;;;;;;13.57;8.38;;;;;;;13.86;100.00;101482.22;5037827;28;20057;-80
2021/07/22 01:55:07;;;;;;;9.80;7.00;;;;;;;13.84;100.00;101483.19;5007972;28;20045;-81
2021/07/22 01:57:33;;;;;;;10.38;7.47;;;;;;;13.79;100.00;101481.50;5042699;28;20037;-81
2021/07/22 02:00:04;;;;;;;9.88;6.78;;;;;;;13.81;100.00;101473.50;5055224;28;20205;-81
2021/07/22 02:02:32;;;;;;;9.77;7.80;;;;;;;13.82;100.00;101469.06;5055347;28;20490;-81
2021/07/22 02:05:02;;;;;;;10.80;7.32;;;;;;;13.86;100.00;101479.56;5065257;28;20056;-81
2021/07/22 02:07:29;;;;;;;10.65;7.95;;;;;;;13.86;100.00;101482.22;5036113;28;20052;-81
2021/07/22 02:09:56;;;;;;;10.63;8.15;;;;;;;13.84;100.00;101477.88;5039234;28;20449;-80
2021/07/22 02:12:22;;;;;;;10.77;7.57;;;;;;;13.82;100.00;101491.19;5052107;28;20383;-81
2021/07/22 02:14:52;;;;;;;10.88;7.78;;;;;;;13.76;100.00;101486.88;5032822;28;20098;-80
2021/07/22 02:17:19;;;;;;;11.68;7.18;;;;;;;13.68;100.00;101488.81;5045885;28;20036;-80
2021/07/22 02:19:46;;;;;;;11.07;7.78;;;;;;;13.67;100.00;101486.19;5061714;28;20044;-80
2021/07/22 02:22:14;;;;;;;10.70;7.82;;;;;;;13.65;100.00;101493.31;5030066;28;20049;-81
2021/07/22 02:24:41;;;;;;;10.82;7.75;;;;;;;13.59;100.00;101496.94;5092489;23;20040;-76
2021/07/22 02:27:08;;;;;;;9.88;7.13;;;;;;;13.62;100.00;101498.66;5039197;28;20045;-76
2021/07/22 02:29:35;;;;;;;10.13;7.63;;;;;;;13.61;100.00;101496.91;5047371;28;20417;-77
2021/07/22 02:32:03;;;;;;;11.70;7.90;;;;;;;13.58;100.00;101497.88;5028336;28;20394;-76
2021/07/22 02:34:29;;;;;;;10.27;7.82;;;;;;;13.59;100.00;101490.78;5023323;28;20520;-77
2021/07/22 02:36:56;;;;;;;11.38;7.68;;;;;;;13.49;100.00;101492.72;5036192;28;20049;-77
2021/07/22 02:39:24;;;;;;;11.18;7.78;;;;;;;13.50;100.00;101497.13;5028458;28;20048;-76
2021/07/22 02:41:51;;;;;;;14.32;8.48;;;;;;;13.45;100.00;101496.34;5010509;28;20064;-76
2021/07/22 02:44:17;;;;;;;10.32;7.80;;;;;;;13.47;100.00;101499.84;5027541;28;20107;-77
2021/07/22 02:46:44;;;;;;;11.52;7.65;;;;;;;13.41;100.00;101498.19;5008384;28;20050;-76
2021/07/22 02:49:11;;;;;;;12.60;7.55;;;;;;;13.41;100.00;101498.19;5027397;28;20042;-76
2021/07/22 02:51:37;;;;;;;10.65;7.57;;;;;;;13.31;100.00;101498.41;5003989;28;20045;-78
2021/07/22 02:54:04;;;;;;;10.55;8.02;;;;;;;13.27;100.00;101494.91;5011122;28;20521;-76
2021/07/22 02:56:31;;;;;;;10.95;7.72;;;;;;;13.22;100.00;101504.75;5026840;28;20096;-76
2021/07/22 02:58:58;;;;;;;11.73;8.55;;;;;;;13.17;100.00;101498.59;5033077;28;20490;-77
2021/07/22 03:01:24;;;;;;;14.77;9.00;;;;;;;13.24;100.00;101505.59;5034319;28;20037;-78
2021/07/22 03:03:51;;;;;;;9.55;7.20;;;;;;;13.27;100.00;101502.84;5031487;28;20554;-76
2021/07/22 03:06:18;;;;;;;10.95;7.97;;;;;;;13.28;100.00;101509.03;5028552;28;20128;-78
2021/07/22 03:08:45;;;;;;;11.18;7.60;;;;;;;13.25;100.00;101509.97;4992581;28;20502;-76
2021/07/22 03:11:11;;;;;;;11.00;7.22;;;;;;;13.21;100.00;101511.84;5027616;28;20041;-76
2021/07/22 03:13:38;;;;;;;10.45;7.18;;;;;;;13.22;100.00;101504.75;5011632;28;20046;-79
2021/07/22 03:16:06;;;;;;;10.63;7.45;;;;;;;13.20;100.00;101504.78;5021020;28;20041;-75
2021/07/22 03:18:34;;;;;;;11.35;7.95;;;;;;;13.14;100.00;101498.66;5012004;28;20052;-75
2021/07/22 03:21:01;;;;;;;12.60;7.60;;;;;;;13.17;100.00;101503.91;5025800;28;20045;-78
2021/07/22 03:23:28;;;;;;;10.48;7.55;;;;;;;13.16;100.00;101500.38;5025531;28;20042;-76
2021/07/22 03:25:55;;;;;;;14.40;8.15;;;;;;;13.15;100.00;101495.97;4990443;28;20038;-76
2021/07/22 03:28:23;;;;;;;11.70;7.95;;;;;;;13.21;100.00;101505.66;5023193;28;20033;-75
2021/07/22 03:30:49;;;;;;;12.02;7.60;;;;;;;13.24;100.00;101489.66;5015744;28;20044;-75
2021/07/22 03:33:16;;;;;;;12.93;8.48;;;;;;;13.30;100.00;101509.91;5010653;28;20449;-76
2021/07/22 03:35:43;;;;;;;9.50;7.65;;;;;;;13.29;100.00;101506.38;5026908;28;20053;-76
2021/07/22 03:38:09;;;;;;;13.15;7.85;;;;;;;13.30;100.00;101505.47;5011431;28;20095;-76
2021/07/22 03:40:36;;;;;;;10.70;7.47;;;;;;;13.27;100.00;101510.81;5010051;28;20045;-76
2021/07/22 03:43:03;;;;;;;10.45;7.55;;;;;;;13.33;100.00;101502.75;4992622;28;20057;-79
2021/07/22 03:45:29;;;;;;;10.18;7.25;;;;;;;13.33;100.00;101499.22;5025799;28;20046;-77
2021/07/22 03:48:00;;;;;;;9.98;7.57;;;;;;;13.34;100.00;101501.84;5028879;28;20331;-76
2021/07/22 03:50:27;;;;;;;11.07;7.40;;;;;;;13.41;100.00;101505.28;5019675;28;20052;-76
2021/07/22 03:52:58;;;;;;;12.10;7.55;;;;;;;13.47;100.00;101506.03;4994435;28;20418;-76
2021/07/22 03:55:28;;;;;;;12.07;7.70;;;;;;;13.48;100.00;101504.25;5025134;28;20506;-77
2021/07/22 03:57:55;;;;;;;11.63;8.02;;;;;;;13.51;100.00;101502.41;5028191;28;20076;-76
2021/07/22 04:00:23;;;;;;;10.23;7.93;;;;;;;13.51;100.00;101504.19;5006530;28;20034;-76
2021/07/22 04:03:06;;;;;;;11.73;8.05;;;;;;;13.56;100.00;101499.69;5008539;28;20060;-77
2021/07/22 04:05:33;;;;;;;13.23;8.18;;;;;;;13.61;100.00;101497.78;5010168;28;20053;-76
2021/07/22 04:08:00;;;;;;;10.80;7.10;;;;;;;13.62;100.00;101498.66;5010183;28;20037;-77
2021/07/22 04:10:28;;;;;;;13.43;8.27;;;;;;;13.71;100.00;101501.16;5025752;28;20045;-76
2021/07/22 04:13:00;;;;;;;11.55;8.85;;;;;;;13.73;100.00;101496.69;5010459;28;20065;-76
2021/07/22 04:15:28;;;;;;;10.57;8.13;;;;;;;13.78;100.00;101500.09;5008432;28;20045;-77
2021/07/22 04:17:55;;;;;;;9.48;7.38;;;;;;;13.86;100.00;101500.81;5027362;28;20063;-76
2021/07/22 04:20:23;;;;;;;12.43;7.90;;;;;;;13.88;100.00;101508.78;5009247;28;20618;-78
2021/07/22 04:22:51;;;;;;;13.10;8.90;;;;;;;13.93;100.00;101502.47;4991560;28;20061;-78
2021/07/22 04:25:17;;;;;;;11.13;8.00;;;;;;;14.02;100.00;101504.91;5023425;28;20494;-76
2021/07/22 04:27:44;;;;;;;10.85;7.65;;;;;;;14.01;100.00;101499.66;4987544;28;20111;-77
2021/07/22 04:30:11;;;;;;;11.35;7.97;;;;;;;14.01;100.00;101508.47;5012508;28;20041;-76
2021/07/22 04:32:38;;;;;;;9.80;7.20;;;;;;;14.04;100.00;101496.91;5026413;28;20041;-77
2021/07/22 04:35:08;;;;;;;10.88;8.00;;;;;;;14.05;100.00;101504.88;5007610;28;20434;-78
2021/07/22 04:37:36;;;;;;;9.75;7.20;;;;;;;14.14;100.00;101509.13;5026405;28;20103;-78
2021/07/22 04:40:06;;;;;;;11.50;8.13;;;;;;;14.15;100.00;101504.66;5026823;28;20617;-77
2021/07/22 04:42:35;;;;;;;12.23;8.23;;;;;;;14.25;100.00;101506.22;5010299;28;20192;-77
2021/07/22 04:45:05;;;;;;;10.95;7.68;;;;;;;14.28;100.00;101507.00;5028904;28;20050;-77
2021/07/22 04:47:33;;;;;;;13.75;9.40;;;;;;;14.42;100.00;101504.03;5030017;28;20087;-78
2021/07/22 04:49:59;;;;;;;10.60;7.70;;;;;;;14.49;100.00;101507.47;5013989;28;20049;-76
2021/07/22 04:52:26;;;;;;;11.45;8.57;;;;;;;14.52;100.00;101510.06;5031531;28;20037;-75
2021/07/22 04:54:53;;;;;;;12.73;8.27;;;;;;;14.61;100.00;101507.19;5014588;28;20131;-76
2021/07/22 04:57:23;;;;;;;12.13;8.90;;;;;;;14.68;100.00;101500.81;5029939;28;20095;-76
2021/07/22 04:59:54;;;;;;;18.23;9.90;;;;;;;14.84;100.00;101503.97;5028776;28;20190;-76
2021/07/22 05:02:20;;;;;;;13.43;8.95;;;;;;;14.90;100.00;101506.50;5029123;28;20069;-77
2021/07/22 05:04:48;;;;;;;11.82;7.90;;;;;;;15.00;100.00;101510.66;5030928;28;20050;-77
2021/07/22 05:07:15;;;;;;;11.85;8.40;;;;;;;15.14;100.00;101513.00;5028895;28;20034;-76
2021/07/22 05:09:42;;;;;;;11.80;8.82;;;;;;;15.17;100.00;101518.22;5021053;28;20057;-76
2021/07/22 05:12:09;;;;;;;12.18;8.57;;;;;;;15.21;100.00;101518.09;5026090;28;20111;-78
2021/07/22 05:14:38;;;;;;;14.07;9.50;;;;;;;15.26;100.00;101519.78;5035809;28;20046;-77
2021/07/22 05:17:05;;;;;;;14.27;10.43;;;;;;;15.26;100.00;101514.44;5001790;28;20053;-78
2021/07/22 05:19:32;;;;;;;14.18;9.85;;;;;;;15.22;100.00;101511.00;5014609;28;20042;-75
2021/07/22 05:21:58;;;;;;;13.70;9.88;;;;;;;15.29;100.00;101501.03;5030405;28;20498;-77
2021/07/22 05:24:25;;;;;;;14.15;10.18;;;;;;;15.27;100.00;101494.88;5020476;28;20128;-78
2021/07/22 05:26:52;;;;;;;14.73;9.98;;;;;;;15.33;100.00;101502.72;5030642;28;20045;-75
2021/07/22 05:29:19;;;;;;;13.70;8.77;;;;;;;15.38;100.00;101496.34;5034102;28;20049;-77
2021/07/22 05:31:45;;;;;;;13.23;10.05;;;;;;;15.30;100.00;101495.69;5031083;28;20503;-78
2021/07/22 05:34:12;;;;;;;12.20;8.82;;;;;;;15.33;100.00;101498.28;5001497;28;20042;-78
2021/07/22 05:36:40;;;;;;;10.90;8.32;;;;;;;15.41;100.00;101498.06;5030528;28;20529;-76
2021/07/22 05:39:07;;;;;;;11.68;8.40;;;;;;;15.41;100.00;101490.94;5000722;28;20610;-76
2021/07/22 05:41:38;;;;;;;11.75;8.55;;;;;;;15.38;100.00;101492.81;5019101;28;20624;-78
2021/07/22 05:44:05;;;;;;;14.30;9.85;;;;;;;15.40;100.00;101491.88;5033781;28;20041;-78
2021/07/22 05:46:32;;;;;;;10.73;8.25;;;;;;;15.48;100.00;101489.00;5047102;28;20577;-77
2021/07/22 05:48:59;;;;;;;14.38;9.85;;;;;;;15.60;100.00;101495.75;4995957;28;20083;-77
2021/07/22 05:51:26;;;;;;;17.02;9.45;;;;;;;15.71;100.00;101491.03;4996070;28;20042;-77
2021/07/22 05:53:53;;;;;;;13.18;9.73;;;;;;;15.84;100.00;101492.44;5045811;28;20098;-77
2021/07/22 05:56:19;;;;;;;20.02;10.45;;;;;;;15.83;100.00;101489.81;5015422;28;20401;-77
2021/07/22 05:58:46;;;;;;;13.73;10.07;;;;;;;16.13;100.00;101491.56;5004432;28;20056;-77
2021/07/22 06:01:13;;;;;;;12.93;8.50;;;;;;;16.35;100.00;101488.25;5029838;28;20490;-77
2021/07/22 06:03:40;;;;;;;13.90;9.88;;;;;;;16.45;100.00;101489.69;5012779;28;20037;-76
2021/07/22 06:06:07;;;;;;;12.98;10.02;;;;;;;16.77;100.00;101484.25;4999683;28;20053;-78
2021/07/22 06:08:34;;;;;;;12.45;9.10;;;;;;;17.73;100.00;101474.66;5030651;28;20052;-77
2021/07/22 06:11:08;;;;;;;13.20;8.57;;;;;;;18.44;93.41;101495.09;5017034;28;20041;-77
2021/07/22 06:13:35;;;;;;;14.38;8.70;;;;;;;18.73;92.09;101488.59;5001041;28;20438;-75
2021/07/22 06:16:03;;;;;;;11.35;8.27;;;;;;;18.79;90.58;101490.16;5033011;28;20046;-78
2021/07/22 06:18:29;;;;;;;12.55;8.68;;;;;;;18.73;90.72;101490.38;5003566;28;20050;-76
2021/07/22 06:20:56;;;;;;;11.63;8.40;;;;;;;18.56;92.17;101494.59;5009098;28;20060;-78
2021/07/22 06:23:23;;;;;;;10.30;8.00;;;;;;;18.69;93.40;101489.66;5033245;28;20056;-77
2021/07/22 06:25:55;;;;;;;11.55;9.45;;;;;;;19.02;91.95;101498.09;5006830;28;20422;-76
2021/07/22 06:28:21;;;;;;;10.38;7.68;;;;;;;19.20;89.69;101498.25;5000925;28;20045;-75
2021/07/22 06:30:48;;;;;;;11.80;8.32;;;;;;;19.27;84.87;101499.72;5047568;28;20517;-77
2021/07/22 06:33:15;;;;;;;11.05;8.60;;;;;;;19.27;86.46;101492.56;5005309;28;20047;-78
2021/07/22 06:35:41;;;;;;;13.23;8.88;;;;;;;19.25;84.43;101496.22;5016582;28;20081;-79
2021/07/22 06:38:08;;;;;;;12.50;8.40;;;;;;;19.51;82.13;101501.34;5021629;28;20052;-75
2021/07/22 06:40:35;;;;;;;11.50;8.60;;;;;;;19.81;82.19;101504.47;5002515;28;20054;-78
2021/07/22 06:43:02;;;;;;;11.43;8.70;;;;;;;20.04;80.62;101506.09;5023568;28;20030;-78
2021/07/22 06:45:28;;;;;;;10.80;8.50;;;;;;;20.19;80.01;101493.78;5005407;28;20040;-75
2021/07/22 06:47:55;;;;;;;9.75;8.52;;;;;;;20.19;78.88;101508.06;5033895;28;20049;-77
2021/07/22 06:50:22;;;;;;;10.82;7.97;;;;;;;20.39;78.58;101504.44;5013901;28;20048;-78
2021/07/22 06:52:48;;;;;;;10.95;8.02;;;;;;;20.54;79.53;101505.56;5022781;28;20045;-77
2021/07/22 06:55:15;;;;;;;13.63;8.40;;;;;;;20.69;78.19;101510.19;5013309;28;20044;-76
2021/07/22 06:57:41;;;;;;;10.95;8.00;;;;;;;20.61;71.57;101508.81;5019947;28;20449;-78
2021/07/22 07:00:09;;;;;;;13.10;8.70;;;;;;;20.59;73.98;101500.81;5030790;28;20045;-78
2021/07/22 07:02:35;;;;;;;9.60;8.02;;;;;;;20.50;76.69;101510.19;5013828;28;20061;-77
2021/07/22 07:05:02;;;;;;;10.13;7.95;;;;;;;20.69;79.57;101503.94;5031348;28;20537;-78
2021/07/22 07:07:29;;;;;;;10.18;8.13;;;;;;;20.94;78.10;101506.28;5011572;28;20107;-76
2021/07/22 07:09:56;;;;;;;11.00;7.90;;;;;;;21.20;73.46;101503.13;5016214;28;20041;-78
2021/07/22 07:12:22;;;;;;;10.63;7.90;;;;;;;21.42;73.20;101499.34;5018996;28;20083;-77
2021/07/22 07:14:49;;;;;;;11.40;7.68;;;;;;;21.41;72.02;101503.84;5029659;28;20056;-76
2021/07/22 07:17:15;;;;;;;11.00;7.40;;;;;;;21.58;69.87;101503.84;5035755;28;20037;-77
2021/07/22 07:19:45;;;;;;;10.02;7.93;;;;;;;21.78;70.41;101501.94;5026852;28;20044;-77
2021/07/22 07:22:15;;;;;;;8.93;7.65;;;;;;;21.76;67.31;101493.03;5015204;28;20045;-78
2021/07/22 07:24:42;;;;;;;10.00;8.05;;;;;;;21.90;69.83;101502.13;5047026;28;20041;-77
2021/07/22 07:27:08;;;;;;;9.70;7.28;;;;;;;21.79;68.52;101499.16;5031159;28;20037;-77
2021/07/22 07:29:35;;;;;;;8.77;6.93;;;;;;;21.66;67.00;101497.19;5012989;28;20048;-78
2021/07/22 07:32:02;;;;;;;10.98;7.38;;;;;;;21.68;73.58;101492.59;5042788;28;20041;-77
2021/07/22 07:34:29;;;;;;;9.43;7.55;;;;;;;21.63;70.98;101498.22;5029796;28;20049;-78
2021/07/22 07:36:56;;;;;;;11.07;7.70;;;;;;;21.70;72.23;101501.47;5026933;28;20037;-78
2021/07/22 07:39:24;;;;;;;9.23;6.63;;;;;;;21.30;66.20;101496.34;4997482;28;20052;-76
2021/07/22 07:41:50;;;;;;;8.68;6.85;;;;;;;21.32;67.80;101504.34;5009627;28;20551;-77
2021/07/22 07:44:17;;;;;;;8.85;6.75;;;;;;;20.87;66.43;101510.22;5008438;28;20045;-77
2021/07/22 07:46:44;;;;;;;8.82;6.82;;;;;;;21.42;70.60;101500.22;5021106;28;20324;-78
2021/07/22 07:49:10;;;;;;;9.43;7.28;;;;;;;21.69;67.86;101505.94;5007731;28;20053;-76
2021/07/22 07:51:37;;;;;;;8.77;7.43;;;;;;;21.85;69.02;101500.63;5012112;28;20095;-77
2021/07/22 07:54:04;;;;;;;9.32;6.57;;;;;;;21.71;63.15;101505.88;5029872;28;20041;-77
2021/07/22 07:56:35;;;;;;;10.43;7.75;;;;;;;21.76;65.89;101506.50;5006375;28;20052;-76
2021/07/22 07:59:12;;;;;;;8.70;6.75;;;;;;;21.80;65.89;101498.19;5038608;28;20038;-76
2021/07/22 08:01:42;;;;;;;10.80;7.20;;;;;;;21.83;64.22;101506.09;5013820;28;20045;-78
2021/07/22 08:04:10;;;;;;;8.38;6.47;;;;;;;21.78;65.13;101497.41;4992177;28;20108;-76
2021/07/22 08:06:43;;;;;;;10.85;7.80;;;;;;;21.75;64.98;101497.56;4990421;28;20046;-78
2021/07/22 08:09:10;;;;;;;9.43;6.82;;;;;;;21.76;62.75;101495.72;5008022;28;20144;-77
2021/07/22 08:11:37;;;;;;;11.02;6.88;;;;;;;21.68;64.01;101497.97;5007742;28;20057;-79
2021/07/22 08:14:04;;;;;;;8.73;6.70;;;;;;;21.80;65.12;101494.63;5009362;28;20045;-77
2021/07/22 08:16:30;;;;;;;8.18;6.40;;;;;;;21.72;62.85;101495.03;5007589;28;20049;-77
2021/07/22 08:18:57;;;;;;;8.98;7.05;;;;;;;22.17;63.56;101488.13;5022850;28;20132;-77
2021/07/22 08:21:24;;;;;;;13.35;8.63;;;;;;;22.44;64.15;101489.25;5047044;28;20143;-78
2021/07/22 08:23:51;;;;;;;8.82;6.88;;;;;;;22.42;63.23;101488.47;4997815;28;20049;-77
2021/07/22 08:26:18;;;;;;;10.13;7.97;;;;;;;22.83;64.59;101484.34;4997734;28;20248;-78
2021/07/22 08:28:44;;;;;;;8.30;7.00;;;;;;;23.10;63.36;101485.44;5036343;28;20057;-78
2021/07/22 08:31:11;;;;;;;8.40;6.63;;;;;;;23.19;61.38;101489.41;5014154;28;20054;-78
2021/07/22 08:33:37;;;;;;;10.02;7.05;;;;;;;22.99;61.16;101483.41;5014854;28;20045;-77
2021/07/22 08:36:05;;;;;;;7.97;6.88;;;;;;;23.07;59.47;101484.78;5010500;28;20042;-78
2021/07/22 08:38:31;;;;;;;10.02;6.93;;;;;;;23.09;58.53;101474.75;5019120;28;20049;-79
2021/07/22 08:40:59;;;;;;;8.20;6.75;;;;;;;23.13;59.70;101479.91;5004869;28;20045;-78
2021/07/22 08:43:27;;;;;;;8.52;7.05;;;;;;;23.12;60.08;101477.25;5030184;28;20777;-77
2021/07/22 08:45:55;;;;;;;8.25;6.45;;;;;;;23.11;59.42;101478.22;4994451;28;20046;-75
2021/07/22 08:48:21;;;;;;;8.85;6.50;;;;;;;23.37;61.06;101477.50;5006220;28;20049;-76
2021/07/22 08:50:48;;;;;;;8.50;6.82;;;;;;;23.53;61.25;101466.66;5012396;28;20660;-76
2021/07/22 08:53:16;;;;;;;10.93;6.95;;;;;;;23.50;59.12;101469.56;4995973;28;20041;-79
2021/07/22 08:55:45;;;;;;;10.00;7.30;;;;;;;23.64;60.59;101479.53;4996457;28;20056;-77
2021/07/22 08:58:11;;;;;;;10.05;6.95;;;;;;;23.57;57.93;101469.09;5011245;28;20068;-79
2021/07/22 09:00:41;;;;;;;8.73;7.00;;;;;;;23.46;57.53;101471.59;5025352;28;20099;-75
2021/07/22 09:03:15;;;;;;;9.70;7.43;;;;;;;22.66;58.87;101463.78;5012998;28;20079;-79
2021/07/22 09:05:45;;;;;;;9.93;6.97;;;;;;;22.94;60.31;101479.22;4995846;28;20118;-75
2021/07/22 09:08:13;;;;;;;8.85;7.30;;;;;;;23.00;59.68;101473.47;5011561;28;20076;-79
2021/07/22 09:10:39;;;;;;;10.55;7.30;;;;;;;22.84;57.77;101467.22;5009718;28;20042;-79
2021/07/22 09:13:22;;;;;;;10.70;7.80;;;;;;;23.01;61.87;101473.38;5004025;28;20046;-77
2021/07/22 09:15:52;;;;;;;8.48;6.85;;;;;;;23.05;61.49;101465.13;5026365;28;20096;-77
2021/07/22 09:18:26;;;;;;;9.23;7.13;;;;;;;23.11;61.40;101470.13;5014173;28;20435;-76
2021/07/22 09:20:54;;;;;;;10.35;6.88;;;;;;;23.17;62.20;101464.38;5025199;28;20491;-78
2021/07/22 09:23:26;;;;;;;8.82;7.15;;;;;;;23.26;60.42;101469.22;5011745;28;20842;-75
2021/07/22 09:25:54;;;;;;;9.07;7.20;;;;;;;23.24;60.59;101465.75;5042114;28;20091;-78
2021/07/22 09:28:25;;;;;;;9.68;7.47;;;;;;;23.23;58.71;101461.31;5012118;28;20041;-77
2021/07/22 09:31:03;;;;;;;7.97;6.90;;;;;;;23.19;60.36;101465.16;5032991;28;20276;-78
2021/07/22 09:33:42;;;;;;;13.05;8.38;;;;;;;23.12;58.04;101461.97;5012641;28;20049;-77
2021/07/22 09:36:18;;;;;;;11.00;7.55;;;;;;;23.02;58.67;101471.56;5018649;28;20123;-78
2021/07/22 09:38:46;;;;;;;9.77;7.28;;;;;;;22.84;60.01;101470.78;5027822;28;20049;-79
2021/07/22 09:41:22;;;;;;;;;;;;;;;22.76;59.88;101465.84;5026327;28;20057;-78
2021/07/22 09:43:49;;;;;;;11.75;7.75;;;;;;;22.81;60.50;101462.91;4997508;28;19925;-78
2021/07/22 09:46:16;;;;;;;12.25;7.35;;;;;;;23.03;60.25;101468.75;5009983;28;20037;-78
2021/07/22 09:51:40;;;;;;;9.52;7.63;;;;;;;23.92;59.58;101462.47;5037350;28;20052;-80
2021/07/22 09:54:08;;;;;;;10.57;8.07;;;;;;;23.64;57.32;101463.34;4994006;28;20049;-81
2021/07/22 09:56:39;;;;;;;9.15;7.32;;;;;;;23.86;57.27;101459.19;5025319;28;20096;-79
2021/07/22 09:59:06;;;;;;;10.13;7.43;;;;;;;23.81;57.72;101465.84;5042839;28;20054;-82
2021/07/22 10:01:38;;;;;;;8.52;7.50;;;;;;;24.13;57.50;101455.66;5005381;28;20045;-83
2021/07/22 10:04:06;;;;;;;10.05;7.45;;;;;;;24.27;57.38;101454.78;4991228;28;20039;-81
2021/07/22 10:06:35;;;;;;;10.75;7.43;;;;;;;24.39;55.09;101465.72;5005428;28;20042;-81
2021/07/22 10:09:03;;;;;;;8.73;6.97;;;;;;;24.54;55.17;101449.44;4991824;28;20038;-81
2021/07/22 10:11:30;;;;;;;11.68;7.03;;;;;;;24.23;54.64;101456.84;4989633;28;20081;-81
2021/07/22 10:14:01;;;;;;;9.57;6.78;;;;;;;24.22;56.13;101452.41;5001350;28;20125;-82
2021/07/22 10:16:28;;;;;;;9.23;7.18;;;;;;;23.86;56.25;101450.22;4972361;28;20124;-82
2021/07/22 10:18:58;;;;;;;8.73;7.18;;;;;;;23.66;56.41;101462.28;4975633;28;20619;-82
2021/07/22 10:21:25;;;;;;;9.55;7.82;;;;;;;23.40;57.36;101453.06;5003759;28;20051;-82
2021/07/22 10:23:53;;;;;;;8.88;6.97;;;;;;;23.50;59.71;101448.84;5021956;28;20042;-81
2021/07/22 10:26:23;;;;;;;10.02;7.05;;;;;;;23.50;59.82;101448.84;4996721;28;20045;-82
2021/07/22 10:28:50;;;;;;;9.52;8.00;;;;;;;23.43;59.72;101449.31;4977654;28;20069;-84
2021/07/22 10:31:17;;;;;;;11.88;6.93;;;;;;;23.32;58.60;101441.88;4992428;28;20043;-82
2021/07/22 10:33:44;;;;;;;9.45;7.50;;;;;;;23.33;59.87;101438.22;4993099;28;20096;-82
2021/07/22 10:36:11;;;;;;;8.80;7.32;;;;;;;23.40;59.55;101447.69;4976448;28;20046;-83
2021/07/22 10:38:43;;;;;;;9.00;7.15;;;;;;;23.75;59.49;101444.66;4992136;28;20042;-80
2021/07/22 10:41:09;;;;;;;10.70;7.00;;;;;;;23.60;56.27;101438.38;4992200;28;20093;-82
2021/07/22 10:43:41;;;;;;;8.50;7.45;;;;;;;23.72;56.49;101431.34;5008646;28;20042;-81
2021/07/22 10:46:19;;;;;;;9.02;7.45;;;;;;;23.70;56.96;101426.03;5008206;28;20050;-82
2021/07/22 10:48:47;;;;;;;8.85;6.43;;;;;;;23.46;58.24;101430.25;4980034;28;20038;-83
2021/07/22 10:51:14;;;;;;;9.93;7.38;;;;;;;23.73;57.21;101425.84;4985449;28;20077;-79
2021/07/22 10:53:42;;;;;;;9.15;7.15;;;;;;;23.87;56.25;101427.66;4992782;28;20046;-83
2021/07/22 10:56:13;;;;;;;8.57;6.95;;;;;;;23.98;57.59;101432.41;5021937;28;20047;-83
2021/07/22 10:58:40;;;;;;;11.45;8.18;;;;;;;23.76;54.19;101422.97;4986609;28;20050;-83
2021/07/22 11:01:07;;;;;;;9.07;7.30;;;;;;;23.84;56.07;101428.72;4990787;28;20077;-82
2021/07/22 11:03:38;;;;;;;10.00;7.53;;;;;;;23.74;55.66;101426.72;5007954;28;20043;-83
2021/07/22 11:06:09;;;;;;;9.35;7.60;;;;;;;23.77;57.99;101431.91;5022874;28;20046;-80
2021/07/22 11:08:43;;;;;;;44.58;10.27;;;;;;;23.69;55.42;101426.13;5000173;28;20046;-82
2021/07/22 11:11:13;;;;;;;9.90;7.75;;;;;;;23.77;57.54;101426.53;5005709;28;20085;-80
2021/07/22 11:13:44;;;;;;;10.65;8.20;;;;;;;23.87;56.71;101427.66;5007145;28;20101;-82
2021/07/22 11:16:22;;;;;;;8.65;7.15;;;;;;;23.79;55.93;101424.59;4990540;28;20750;-83
2021/07/22 11:18:57;;;;;;;8.15;7.20;;;;;;;23.64;55.96;101412.97;4991679;28;20034;-82
2021/07/22 11:21:28;;;;;;;8.45;6.93;;;;;;;24.07;57.52;101412.91;5004655;28;20052;-83